Terminal Aerodrome Forecast
Issued by NWS

Home | Current Version | Previous Version | Text Only | Print | Product List | Glossary On
Versions: 1 2 3 4 5 6 7 8 9 10 11 12 13 14 15 16 17 18 19 20 21 22 23 24 25 26 27 28 29 30 31 32 33 34 35 36 37 38 39 40
000
FTUS43 KGLD 261132
TAFMCK
TAF
KMCK 261132Z 2612/2712 VRB03KT 2SM BR BKN002
      TEMPO 2612/2615 1/4SM FG VV002
     FM261600 12010KT P6SM SCT250
     FM270000 13012G17KT P6SM VCTS FEW050 SCT080CB BKN150
      TEMPO 2701/2705 VRB20G30KT 3SM TSRA BR BKN050CB
     FM270600 13009KT P6SM BKN090=

USA.gov is the U.S. government's official web portal to all federal, state and local government web resources and services.